sensor_id;sensor_type;location;lat;lon;timestamp;pressure;altitude;pressure_sealevel;temperature;humidity
30421;BME280;17218;54.070;10.012;2023-04-28T00:02:09;101706.16;;;2.17;100.00
30421;BME280;17218;54.070;10.012;2023-04-28T00:04:35;101695.03;;;2.14;100.00
30421;BME280;17218;54.070;10.012;2023-04-28T00:07:03;101693.84;;;2.08;100.00
30421;BME280;17218;54.070;10.012;2023-04-28T00:09:30;101689.16;;;1.97;100.00
30421;BME280;17218;54.070;10.012;2023-04-28T00:11:56;101691.38;;;1.89;100.00
30421;BME280;17218;54.070;10.012;2023-04-28T00:14:24;101698.91;;;1.86;100.00
30421;BME280;17218;54.070;10.012;2023-04-28T00:16:50;101683.84;;;1.93;100.00
30421;BME280;17218;54.070;10.012;2023-04-28T00:19:17;101678.19;;;2.00;100.00
30421;BME280;17218;54.070;10.012;2023-04-28T00:21:43;101679.81;;;1.98;100.00
30421;BME280;17218;54.070;10.012;2023-04-28T00:24:11;101681.44;;;1.96;100.00
30421;BME280;17218;54.070;10.012;2023-04-28T00:26:38;101674.31;;;1.88;100.00
30421;BME280;17218;54.070;10.012;2023-04-28T00:29:04;101675.63;;;1.80;100.00
30421;BME280;17218;54.070;10.012;2023-04-28T00:31:31;101681.34;;;1.74;100.00
30421;BME280;17218;54.070;10.012;2023-04-28T00:33:57;101680.34;;;1.71;100.00
30421;BME280;17218;54.070;10.012;2023-04-28T00:36:24;101673.09;;;1.60;100.00
30421;BME280;17218;54.070;10.012;2023-04-28T00:38:50;101666.50;;;1.65;100.00
30421;BME280;17218;54.070;10.012;2023-04-28T00:41:18;101671.53;;;1.64;100.00
30421;BME280;17218;54.070;10.012;2023-04-28T00:43:46;101667.38;;;1.66;100.00
30421;BME280;17218;54.070;10.012;2023-04-28T00:46:19;101666.97;;;1.57;100.00
30421;BME280;17218;54.070;10.012;2023-04-28T00:48:46;101666.00;;;1.54;100.00
30421;BME280;17218;54.070;10.012;2023-04-28T00:51:12;101664.59;;;1.61;100.00
30421;BME280;17218;54.070;10.012;2023-04-28T00:53:39;101669.38;;;1.53;100.00
30421;BME280;17218;54.070;10.012;2023-04-28T00:56:06;101661.63;;;1.52;100.00
30421;BME280;17218;54.070;10.012;2023-04-28T00:58:34;101662.09;;;1.43;100.00
30421;BME280;17218;54.070;10.012;2023-04-28T01:01:02;101658.81;;;1.46;100.00
30421;BME280;17218;54.070;10.012;2023-04-28T01:03:29;101658.75;;;1.44;100.00
30421;BME280;17218;54.070;10.012;2023-04-28T01:05:56;101661.31;;;1.44;100.00
30421;BME280;17218;54.070;10.012;2023-04-28T01:08:27;101657.63;;;1.39;100.00
30421;BME280;17218;54.070;10.012;2023-04-28T01:10:54;101662.75;;;1.39;100.00
30421;BME280;17218;54.070;10.012;2023-04-28T01:13:20;101654.56;;;1.46;100.00
30421;BME280;17218;54.070;10.012;2023-04-28T01:15:48;101658.47;;;1.38;100.00
30421;BME280;17218;54.070;10.012;2023-04-28T01:18:15;101662.03;;;1.41;100.00
30421;BME280;17218;54.070;10.012;2023-04-28T01:20:42;101654.69;;;1.29;100.00
30421;BME280;17218;54.070;10.012;2023-04-28T01:23:11;101658.56;;;1.21;100.00
30421;BME280;17218;54.070;10.012;2023-04-28T01:25:38;101668.63;;;1.18;100.00
30421;BME280;17218;54.070;10.012;2023-04-28T01:28:05;101661.56;;;1.12;100.00
30421;BME280;17218;54.070;10.012;2023-04-28T01:30:31;101655.81;;;1.16;100.00
30421;BME280;17218;54.070;10.012;2023-04-28T01:32:58;101652.16;;;1.29;100.00
30421;BME280;17218;54.070;10.012;2023-04-28T01:35:24;101662.13;;;1.25;100.00
30421;BME280;17218;54.070;10.012;2023-04-28T01:37:51;101665.56;;;1.25;100.00
30421;BME280;17218;54.070;10.012;2023-04-28T01:40:17;101651.31;;;1.30;100.00
30421;BME280;17218;54.070;10.012;2023-04-28T01:42:45;101657.38;;;1.33;100.00
30421;BME280;17218;54.070;10.012;2023-04-28T01:45:12;101659.34;;;1.38;100.00
30421;BME280;17218;54.070;10.012;2023-04-28T01:47:38;101656.50;;;1.32;100.00
30421;BME280;17218;54.070;10.012;2023-04-28T01:50:06;101658.56;;;1.21;100.00
30421;BME280;17218;54.070;10.012;2023-04-28T01:52:32;101649.06;;;1.18;100.00
30421;BME280;17218;54.070;10.012;2023-04-28T01:54:59;101649.38;;;1.06;100.00
30421;BME280;17218;54.070;10.012;2023-04-28T01:57:26;101645.94;;;1.06;100.00
30421;BME280;17218;54.070;10.012;2023-04-28T01:59:54;101649.59;;;1.11;100.00
30421;BME280;17218;54.070;10.012;2023-04-28T02:02:21;101641.66;;;1.05;100.00
30421;BME280;17218;54.070;10.012;2023-04-28T02:04:47;101644.34;;;1.08;100.00
30421;BME280;17218;54.070;10.012;2023-04-28T02:07:14;101632.25;;;1.04;100.00
30421;BME280;17218;54.070;10.012;2023-04-28T02:09:40;101635.56;;;1.01;100.00
30421;BME280;17218;54.070;10.012;2023-04-28T02:12:07;101638.75;;;0.97;100.00
30421;BME280;17218;54.070;10.012;2023-04-28T02:14:33;101634.31;;;0.93;100.00
30421;BME280;17218;54.070;10.012;2023-04-28T02:17:01;101626.66;;;0.93;100.00
30421;BME280;17218;54.070;10.012;2023-04-28T02:19:29;101636.66;;;0.88;100.00
30421;BME280;17218;54.070;10.012;2023-04-28T02:21:56;101628.81;;;0.85;100.00
30421;BME280;17218;54.070;10.012;2023-04-28T02:24:22;101622.81;;;0.83;100.00
30421;BME280;17218;54.070;10.012;2023-04-28T02:26:49;101619.38;;;0.82;100.00
30421;BME280;17218;54.070;10.012;2023-04-28T02:29:15;101617.69;;;0.83;100.00
30421;BME280;17218;54.070;10.012;2023-04-28T02:31:42;101626.06;;;0.80;100.00
30421;BME280;17218;54.070;10.012;2023-04-28T02:34:09;101614.19;;;0.81;100.00
30421;BME280;17218;54.070;10.012;2023-04-28T02:36:36;101624.03;;;0.73;100.00
30421;BME280;17218;54.070;10.012;2023-04-28T02:39:04;101612.88;;;0.71;100.00
30421;BME280;17218;54.070;10.012;2023-04-28T02:41:30;101620.84;;;0.77;100.00
30421;BME280;17218;54.070;10.012;2023-04-28T02:43:58;101624.25;;;0.78;100.00
30421;BME280;17218;54.070;10.012;2023-04-28T02:46:25;101620.97;;;0.80;100.00
30421;BME280;17218;54.070;10.012;2023-04-28T02:48:51;101617.19;;;0.72;100.00
30421;BME280;17218;54.070;10.012;2023-04-28T02:51:19;101612.69;;;0.66;100.00
30421;BME280;17218;54.070;10.012;2023-04-28T02:53:45;101615.22;;;0.66;100.00
30421;BME280;17218;54.070;10.012;2023-04-28T02:56:12;101614.41;;;0.67;100.00
30421;BME280;17218;54.070;10.012;2023-04-28T02:58:38;101599.84;;;0.65;100.00
30421;BME280;17218;54.070;10.012;2023-04-28T03:01:05;101591.91;;;0.58;100.00
30421;BME280;17218;54.070;10.012;2023-04-28T03:03:31;101604.22;;;0.67;100.00
30421;BME280;17218;54.070;10.012;2023-04-28T03:05:58;101596.41;;;0.64;100.00
30421;BME280;17218;54.070;10.012;2023-04-28T03:08:35;101593.88;;;0.64;100.00
30421;BME280;17218;54.070;10.012;2023-04-28T03:11:02;101587.25;;;0.68;100.00
30421;BME280;17218;54.070;10.012;2023-04-28T03:13:28;101590.22;;;0.59;100.00
30421;BME280;17218;54.070;10.012;2023-04-28T03:15:55;101569.97;;;0.62;100.00
30421;BME280;17218;54.070;10.012;2023-04-28T03:18:21;101573.09;;;0.56;100.00
30421;BME280;17218;54.070;10.012;2023-04-28T03:20:48;101572.44;;;0.42;100.00
30421;BME280;17218;54.070;10.012;2023-04-28T03:23:14;101575.72;;;0.40;100.00
30421;BME280;17218;54.070;10.012;2023-04-28T03:25:42;101573.47;;;0.46;100.00
30421;BME280;17218;54.070;10.012;2023-04-28T03:28:09;101577.09;;;0.51;100.00
30421;BME280;17218;54.070;10.012;2023-04-28T03:30:36;101576.47;;;0.55;100.00
30421;BME280;17218;54.070;10.012;2023-04-28T03:33:02;101568.66;;;0.52;100.00
30421;BME280;17218;54.070;10.012;2023-04-28T03:35:29;101567.94;;;0.55;100.00
30421;BME280;17218;54.070;10.012;2023-04-28T03:37:55;101555.13;;;0.53;100.00
30421;BME280;17218;54.070;10.012;2023-04-28T03:40:22;101552.31;;;0.49;100.00
30421;BME280;17218;54.070;10.012;2023-04-28T03:42:50;101549.13;;;0.53;100.00
30421;BME280;17218;54.070;10.012;2023-04-28T03:45:16;101551.69;;;0.53;100.00
30421;BME280;17218;54.070;10.012;2023-04-28T03:47:43;101544.16;;;0.56;100.00
30421;BME280;17218;54.070;10.012;2023-04-28T03:50:09;101549.13;;;0.53;100.00
30421;BME280;17218;54.070;10.012;2023-04-28T03:52:36;101533.91;;;0.54;100.00
30421;BME280;17218;54.070;10.012;2023-04-28T03:55:03;101533.25;;;0.58;100.00
30421;BME280;17218;54.070;10.012;2023-04-28T03:57:29;101550.28;;;0.59;100.00
30421;BME280;17218;54.070;10.012;2023-04-28T03:59:57;101531.59;;;0.59;100.00
30421;BME280;17218;54.070;10.012;2023-04-28T04:02:24;101537.47;;;0.58;100.00
30421;BME280;17218;54.070;10.012;2023-04-28T04:04:50;101535.94;;;0.62;100.00
30421;BME280;17218;54.070;10.012;2023-04-28T04:07:17;101535.47;;;0.70;100.00
30421;BME280;17218;54.070;10.012;2023-04-28T04:09:43;101533.03;;;0.72;100.00
30421;BME280;17218;54.070;10.012;2023-04-28T04:12:10;101523.59;;;0.71;100.00
30421;BME280;17218;54.070;10.012;2023-04-28T04:14:36;101527.81;;;0.70;100.00
30421;BME280;17218;54.070;10.012;2023-04-28T04:17:05;101529.53;;;0.70;100.00
30421;BME280;17218;54.070;10.012;2023-04-28T04:19:32;101511.94;;;0.76;100.00
30421;BME280;17218;54.070;10.012;2023-04-28T04:21:58;101516.91;;;0.73;100.00
30421;BME280;17218;54.070;10.012;2023-04-28T04:24:24;101523.91;;;0.77;100.00
30421;BME280;17218;54.070;10.012;2023-04-28T04:26:51;101522.06;;;0.75;100.00
30421;BME280;17218;54.070;10.012;2023-04-28T04:29:17;101512.19;;;0.63;100.00
30421;BME280;17218;54.070;10.012;2023-04-28T04:31:44;101515.59;;;0.63;100.00
30421;BME280;17218;54.070;10.012;2023-04-28T04:34:12;101511.00;;;0.74;100.00
30421;BME280;17218;54.070;10.012;2023-04-28T04:36:38;101517.47;;;0.86;100.00
30421;BME280;17218;54.070;10.012;2023-04-28T04:39:05;101501.69;;;0.94;100.00
30421;BME280;17218;54.070;10.012;2023-04-28T04:41:31;101495.91;;;0.99;100.00
30421;BME280;17218;54.070;10.012;2023-04-28T04:43:57;101507.19;;;1.04;100.00
30421;BME280;17218;54.070;10.012;2023-04-28T04:46:24;101508.38;;;1.11;100.00
30421;BME280;17218;54.070;10.012;2023-04-28T04:48:51;101502.50;;;1.13;100.00
30421;BME280;17218;54.070;10.012;2023-04-28T04:51:18;101500.03;;;1.15;100.00
30421;BME280;17218;54.070;10.012;2023-04-28T04:53:45;101502.91;;;1.23;100.00
30421;BME280;17218;54.070;10.012;2023-04-28T04:56:11;101501.88;;;1.39;100.00
30421;BME280;17218;54.070;10.012;2023-04-28T04:58:38;101494.56;;;1.47;100.00
30421;BME280;17218;54.070;10.012;2023-04-28T05:01:05;101500.00;;;1.54;100.00
30421;BME280;17218;54.070;10.012;2023-04-28T05:03:32;101496.28;;;1.67;100.00
30421;BME280;17218;54.070;10.012;2023-04-28T05:05:59;101489.13;;;1.80;100.00
30421;BME280;17218;54.070;10.012;2023-04-28T05:08:28;101487.63;;;1.85;100.00
30421;BME280;17218;54.070;10.012;2023-04-28T05:10:55;101490.88;;;2.02;100.00
30421;BME280;17218;54.070;10.012;2023-04-28T05:13:21;101491.19;;;2.10;100.00
30421;BME280;17218;54.070;10.012;2023-04-28T05:15:49;101489.28;;;2.28;100.00
30421;BME280;17218;54.070;10.012;2023-04-28T05:18:15;101475.47;;;2.45;100.00
30421;BME280;17218;54.070;10.012;2023-04-28T05:20:42;101481.75;;;2.54;100.00
30421;BME280;17218;54.070;10.012;2023-04-28T05:23:08;101481.34;;;2.66;100.00
30421;BME280;17218;54.070;10.012;2023-04-28T05:25:36;101478.34;;;2.78;100.00
30421;BME280;17218;54.070;10.012;2023-04-28T05:28:03;101479.91;;;2.97;100.00
30421;BME280;17218;54.070;10.012;2023-04-28T05:30:31;101473.22;;;3.01;100.00
30421;BME280;17218;54.070;10.012;2023-04-28T05:32:58;101473.53;;;3.10;100.00
30421;BME280;17218;54.070;10.012;2023-04-28T05:35:24;101477.19;;;3.17;100.00
30421;BME280;17218;54.070;10.012;2023-04-28T05:37:51;101475.66;;;3.22;100.00
30421;BME280;17218;54.070;10.012;2023-04-28T05:40:18;101471.97;;;3.38;100.00
30421;BME280;17218;54.070;10.012;2023-04-28T05:42:46;101467.19;;;3.49;100.00
30421;BME280;17218;54.070;10.012;2023-04-28T05:45:12;101465.97;;;3.64;100.00
30421;BME280;17218;54.070;10.012;2023-04-28T05:47:39;101457.75;;;3.74;100.00
30421;BME280;17218;54.070;10.012;2023-04-28T05:50:07;101468.22;;;3.80;100.00
30421;BME280;17218;54.070;10.012;2023-04-28T05:52:33;101461.75;;;3.92;100.00
30421;BME280;17218;54.070;10.012;2023-04-28T05:55:00;101456.38;;;4.12;100.00
30421;BME280;17218;54.070;10.012;2023-04-28T05:57:26;101449.72;;;4.18;100.00
30421;BME280;17218;54.070;10.012;2023-04-28T05:59:54;101450.00;;;4.28;100.00
30421;BME280;17218;54.070;10.012;2023-04-28T06:02:20;101447.22;;;4.49;100.00
30421;BME280;17218;54.070;10.012;2023-04-28T06:04:47;101449.97;;;4.56;100.00
30421;BME280;17218;54.070;10.012;2023-04-28T06:07:14;101455.63;;;4.74;100.00
30421;BME280;17218;54.070;10.012;2023-04-28T06:09:40;101458.44;;;4.84;100.00
30421;BME280;17218;54.070;10.012;2023-04-28T06:12:07;101450.16;;;4.94;100.00
30421;BME280;17218;54.070;10.012;2023-04-28T06:14:33;101446.09;;;5.01;100.00
30421;BME280;17218;54.070;10.012;2023-04-28T06:17:01;101445.56;;;5.15;100.00
30421;BME280;17218;54.070;10.012;2023-04-28T06:19:28;101442.53;;;5.30;100.00
30421;BME280;17218;54.070;10.012;2023-04-28T06:21:55;101437.53;;;5.34;100.00
30421;BME280;17218;54.070;10.012;2023-04-28T06:24:21;101436.03;;;5.43;100.00
30421;BME280;17218;54.070;10.012;2023-04-28T06:26:48;101439.50;;;5.45;100.00
30421;BME280;17218;54.070;10.012;2023-04-28T06:29:14;101432.34;;;5.68;100.00
30421;BME280;17218;54.070;10.012;2023-04-28T06:31:40;101426.69;;;5.82;100.00
30421;BME280;17218;54.070;10.012;2023-04-28T06:34:08;101435.81;;;6.06;100.00
30421;BME280;17218;54.070;10.012;2023-04-28T06:36:35;101433.59;;;6.22;100.00
30421;BME280;17218;54.070;10.012;2023-04-28T06:39:01;101422.03;;;6.42;100.00
30421;BME280;17218;54.070;10.012;2023-04-28T06:41:28;101418.88;;;6.56;100.00
30421;BME280;17218;54.070;10.012;2023-04-28T06:43:55;101416.19;;;6.51;100.00
30421;BME280;17218;54.070;10.012;2023-04-28T06:46:22;101417.28;;;6.63;100.00
30421;BME280;17218;54.070;10.012;2023-04-28T06:48:48;101414.91;;;6.74;100.00
30421;BME280;17218;54.070;10.012;2023-04-28T06:51:16;101409.94;;;6.83;100.00
30421;BME280;17218;54.070;10.012;2023-04-28T06:53:43;101415.47;;;7.03;100.00
30421;BME280;17218;54.070;10.012;2023-04-28T06:56:09;101412.53;;;7.31;100.00
30421;BME280;17218;54.070;10.012;2023-04-28T06:58:36;101410.84;;;7.33;100.00
30421;BME280;17218;54.070;10.012;2023-04-28T07:01:02;101410.09;;;7.40;100.00
30421;BME280;17218;54.070;10.012;2023-04-28T07:03:29;101403.41;;;7.52;100.00
30421;BME280;17218;54.070;10.012;2023-04-28T07:05:56;101397.63;;;7.67;100.00
30421;BME280;17218;54.070;10.012;2023-04-28T07:08:25;101401.16;;;7.74;100.00
30421;BME280;17218;54.070;10.012;2023-04-28T07:10:51;101389.31;;;7.85;100.00
30421;BME280;17218;54.070;10.012;2023-04-28T07:13:18;101392.94;;;7.98;100.00
30421;BME280;17218;54.070;10.012;2023-04-28T07:15:44;101392.16;;;8.06;100.00
30421;BME280;17218;54.070;10.012;2023-04-28T07:18:11;101389.69;;;8.14;100.00
30421;BME280;17218;54.070;10.012;2023-04-28T07:20:37;101389.84;;;8.26;100.00
30421;BME280;17218;54.070;10.012;2023-04-28T07:23:04;101377.88;;;8.33;100.00
30421;BME280;17218;54.070;10.012;2023-04-28T07:25:32;101377.91;;;8.36;100.00
30421;BME280;17218;54.070;10.012;2023-04-28T07:28:02;101374.63;;;8.50;100.00
30421;BME280;17218;54.070;10.012;2023-04-28T07:30:28;101380.91;;;8.69;100.00
30421;BME280;17218;54.070;10.012;2023-04-28T07:32:55;101371.66;;;8.91;100.00
30421;BME280;17218;54.070;10.012;2023-04-28T07:35:22;101370.13;;;9.14;100.00
30421;BME280;17218;54.070;10.012;2023-04-28T07:37:49;101371.19;;;9.35;100.00
30421;BME280;17218;54.070;10.012;2023-04-28T07:40:16;101378.03;;;9.29;100.00
30421;BME280;17218;54.070;10.012;2023-04-28T07:42:44;101365.25;;;9.47;100.00
30421;BME280;17218;54.070;10.012;2023-04-28T07:45:11;101376.56;;;9.66;100.00
30421;BME280;17218;54.070;10.012;2023-04-28T07:47:38;101356.81;;;9.76;100.00
30421;BME280;17218;54.070;10.012;2023-04-28T07:50:05;101353.44;;;9.91;100.00
30421;BME280;17218;54.070;10.012;2023-04-28T07:52:32;101358.53;;;9.74;100.00
30421;BME280;17218;54.070;10.012;2023-04-28T07:54:59;101353.28;;;9.68;100.00
30421;BME280;17218;54.070;10.012;2023-04-28T07:57:26;101341.34;;;9.85;100.00
30421;BME280;17218;54.070;10.012;2023-04-28T07:59:55;101351.69;;;9.85;100.00
30421;BME280;17218;54.070;10.012;2023-04-28T08:02:21;101339.69;;;10.03;100.00
30421;BME280;17218;54.070;10.012;2023-04-28T08:04:48;101348.38;;;10.13;100.00
30421;BME280;17218;54.070;10.012;2023-04-28T08:07:14;101339.75;;;10.16;100.00
30421;BME280;17218;54.070;10.012;2023-04-28T08:09:41;101338.91;;;10.23;100.00
30421;BME280;17218;54.070;10.012;2023-04-28T08:12:11;101345.03;;;10.42;100.00
30421;BME280;17218;54.070;10.012;2023-04-28T08:14:37;101338.13;;;10.43;100.00
30421;BME280;17218;54.070;10.012;2023-04-28T08:17:05;101330.41;;;10.55;100.00
30421;BME280;17218;54.070;10.012;2023-04-28T08:19:32;101326.09;;;10.60;100.00
30421;BME280;17218;54.070;10.012;2023-04-28T08:21:59;101326.97;;;10.64;97.50
30421;BME280;17218;54.070;10.012;2023-04-28T08:24:29;101320.97;;;10.93;100.00
30421;BME280;17218;54.070;10.012;2023-04-28T08:26:59;101318.34;;;11.15;99.83
30421;BME280;17218;54.070;10.012;2023-04-28T08:29:27;101324.44;;;11.11;94.53
30421;BME280;17218;54.070;10.012;2023-04-28T08:31:53;101323.53;;;11.04;93.13
30421;BME280;17218;54.070;10.012;2023-04-28T08:34:21;101325.25;;;11.40;93.72
30421;BME280;17218;54.070;10.012;2023-04-28T08:36:48;101320.94;;;11.57;87.70
30421;BME280;17218;54.070;10.012;2023-04-28T08:39:14;101320.00;;;11.74;94.07
30421;BME280;17218;54.070;10.012;2023-04-28T08:41:41;101326.06;;;11.79;89.86
30421;BME280;17218;54.070;10.012;2023-04-28T08:44:08;101314.84;;;11.60;90.58
30421;BME280;17218;54.070;10.012;2023-04-28T08:46:39;101315.69;;;11.65;89.07
30421;BME280;17218;54.070;10.012;2023-04-28T08:49:06;101314.88;;;11.55;87.28
30421;BME280;17218;54.070;10.012;2023-04-28T08:51:44;101316.63;;;11.44;86.00
30421;BME280;17218;54.070;10.012;2023-04-28T08:54:13;101320.91;;;11.47;87.30
30421;BME280;17218;54.070;10.012;2023-04-28T08:56:40;101308.81;;;11.53;86.21
30421;BME280;17218;54.070;10.012;2023-04-28T08:59:10;101304.38;;;11.96;90.68
30421;BME280;17218;54.070;10.012;2023-04-28T09:01:36;101309.50;;;12.16;84.16
30421;BME280;17218;54.070;10.012;2023-04-28T09:04:03;101305.16;;;12.17;81.64
30421;BME280;17218;54.070;10.012;2023-04-28T09:06:31;101299.19;;;11.90;83.47
30421;BME280;17218;54.070;10.012;2023-04-28T09:09:23;101298.22;;;12.19;85.11
30421;BME280;17218;54.070;10.012;2023-04-28T09:11:51;101291.22;;;12.37;80.59
30421;BME280;17218;54.070;10.012;2023-04-28T09:14:19;101286.84;;;12.44;81.49
30421;BME280;17218;54.070;10.012;2023-04-28T09:16:46;101285.88;;;12.59;85.64
30421;BME280;17218;54.070;10.012;2023-04-28T09:19:13;101284.06;;;12.67;87.80
30421;BME280;17218;54.070;10.012;2023-04-28T09:21:51;101284.22;;;12.47;84.14
30421;BME280;17218;54.070;10.012;2023-04-28T09:24:32;101274.59;;;12.58;86.23
30421;BME280;17218;54.070;10.012;2023-04-28T09:26:59;101277.88;;;12.84;85.07
30421;BME280;17218;54.070;10.012;2023-04-28T09:29:26;101274.41;;;12.82;83.09
30421;BME280;17218;54.070;10.012;2023-04-28T09:31:53;101268.41;;;12.76;84.01
30421;BME280;17218;54.070;10.012;2023-04-28T09:34:20;101259.69;;;12.84;82.95
30421;BME280;17218;54.070;10.012;2023-04-28T09:36:47;101256.53;;;12.44;79.19
30421;BME280;17218;54.070;10.012;2023-04-28T09:39:13;101259.19;;;12.35;78.23
30421;BME280;17218;54.070;10.012;2023-04-28T09:41:42;101259.91;;;12.54;78.57
30421;BME280;17218;54.070;10.012;2023-04-28T09:44:14;101250.81;;;13.04;86.07
30421;BME280;17218;54.070;10.012;2023-04-28T09:46:41;101254.16;;;13.17;76.33
30421;BME280;17218;54.070;10.012;2023-04-28T09:49:09;101247.22;;;13.19;80.49
30421;BME280;17218;54.070;10.012;2023-04-28T09:51:35;101239.09;;;13.53;75.82
30421;BME280;17218;54.070;10.012;2023-04-28T09:54:02;101238.41;;;13.32;72.00
30421;BME280;17218;54.070;10.012;2023-04-28T09:56:30;101249.50;;;13.50;71.27
30421;BME280;17218;54.070;10.012;2023-04-28T09:58:59;101231.47;;;13.34;73.56
30421;BME280;17218;54.070;10.012;2023-04-28T10:01:31;101230.38;;;13.56;74.01
30421;BME280;17218;54.070;10.012;2023-04-28T10:03:59;101233.16;;;13.35;71.69
30421;BME280;17218;54.070;10.012;2023-04-28T10:06:26;101220.75;;;13.64;72.63
30421;BME280;17218;54.070;10.012;2023-04-28T10:08:54;101219.94;;;13.59;71.81
30421;BME280;17218;54.070;10.012;2023-04-28T10:11:22;101216.94;;;13.90;72.57
30421;BME280;17218;54.070;10.012;2023-04-28T10:13:49;101214.06;;;14.07;74.01
30421;BME280;17218;54.070;10.012;2023-04-28T10:16:18;101206.56;;;13.86;68.98
30421;BME280;17218;54.070;10.012;2023-04-28T10:18:45;101209.13;;;13.89;67.63
30421;BME280;17218;54.070;10.012;2023-04-28T10:21:16;101203.56;;;14.15;72.61
30421;BME280;17218;54.070;10.012;2023-04-28T10:24:02;101202.63;;;14.75;69.76
30421;BME280;17218;54.070;10.012;2023-04-28T10:27:05;101193.53;;;14.99;62.72
30421;BME280;17218;54.070;10.012;2023-04-28T10:29:33;101183.41;;;14.81;62.46
30421;BME280;17218;54.070;10.012;2023-04-28T10:32:17;101178.31;;;15.22;61.98
30421;BME280;17218;54.070;10.012;2023-04-28T10:34:45;101181.78;;;15.22;61.26
30421;BME280;17218;54.070;10.012;2023-04-28T10:37:12;101173.69;;;14.89;63.11
30421;BME280;17218;54.070;10.012;2023-04-28T10:39:40;101175.78;;;15.17;63.82
30421;BME280;17218;54.070;10.012;2023-04-28T10:45:08;101173.75;;;15.32;61.75
30421;BME280;17218;54.070;10.012;2023-04-28T10:48:00;101176.06;;;15.47;60.44
30421;BME280;17218;54.070;10.012;2023-04-28T10:50:30;101170.28;;;15.31;60.47
30421;BME280;17218;54.070;10.012;2023-04-28T10:52:57;101156.03;;;15.05;58.84
30421;BME280;17218;54.070;10.012;2023-04-28T10:55:31;101163.31;;;15.32;62.28
30421;BME280;17218;54.070;10.012;2023-04-28T10:58:31;101163.09;;;15.43;56.74
30421;BME280;17218;54.070;10.012;2023-04-28T11:01:23;101144.63;;;15.09;57.82
30421;BME280;17218;54.070;10.012;2023-04-28T11:03:52;101153.22;;;15.16;57.57
30421;BME280;17218;54.070;10.012;2023-04-28T11:06:25;101148.09;;;15.53;60.69
30421;BME280;17218;54.070;10.012;2023-04-28T11:08:54;101142.97;;;15.48;57.88
30421;BME280;17218;54.070;10.012;2023-04-28T11:11:23;101144.84;;;16.20;62.25
30421;BME280;17218;54.070;10.012;2023-04-28T11:13:50;101135.16;;;16.59;59.01
30421;BME280;17218;54.070;10.012;2023-04-28T11:16:22;101138.13;;;16.80;54.92
30421;BME280;17218;54.070;10.012;2023-04-28T11:19:03;101136.63;;;16.71;53.50
30421;BME280;17218;54.070;10.012;2023-04-28T11:21:30;101130.91;;;16.88;56.38
30421;BME280;17218;54.070;10.012;2023-04-28T11:23:57;101137.59;;;17.32;53.08
30421;BME280;17218;54.070;10.012;2023-04-28T11:26:24;101122.22;;;17.79;52.54
30421;BME280;17218;54.070;10.012;2023-04-28T11:28:53;101130.16;;;17.47;53.36
30421;BME280;17218;54.070;10.012;2023-04-28T11:31:21;101121.72;;;17.05;53.09
30421;BME280;17218;54.070;10.012;2023-04-28T11:33:52;101127.28;;;17.26;52.77
30421;BME280;17218;54.070;10.012;2023-04-28T11:36:30;101121.94;;;17.29;53.44
30421;BME280;17218;54.070;10.012;2023-04-28T11:38:58;101113.09;;;18.19;50.72
30421;BME280;17218;54.070;10.012;2023-04-28T11:41:25;101108.66;;;18.47;48.43
30421;BME280;17218;54.070;10.012;2023-04-28T11:43:52;101112.16;;;18.71;48.02
30421;BME280;17218;54.070;10.012;2023-04-28T11:46:20;101111.34;;;18.95;49.07
30421;BME280;17218;54.070;10.012;2023-04-28T11:48:47;101104.28;;;19.45;48.24
30421;BME280;17218;54.070;10.012;2023-04-28T11:51:33;101104.25;;;20.33;45.06
30421;BME280;17218;54.070;10.012;2023-04-28T11:54:01;101100.91;;;20.30;43.68
30421;BME280;17218;54.070;10.012;2023-04-28T11:56:29;101098.16;;;21.13;43.89
30421;BME280;17218;54.070;10.012;2023-04-28T11:59:03;101097.28;;;20.11;44.05
30421;BME280;17218;54.070;10.012;2023-04-28T12:01:30;101088.59;;;20.91;42.92
30421;BME280;17218;54.070;10.012;2023-04-28T12:03:57;101090.09;;;21.16;43.46
30421;BME280;17218;54.070;10.012;2023-04-28T12:06:24;101083.44;;;20.88;43.04
30421;BME280;17218;54.070;10.012;2023-04-28T12:08:52;101092.41;;;19.79;43.90
30421;BME280;17218;54.070;10.012;2023-04-28T12:11:19;101097.25;;;18.98;46.22
30421;BME280;17218;54.070;10.012;2023-04-28T12:14:04;101093.16;;;19.14;46.18
30421;BME280;17218;54.070;10.012;2023-04-28T12:16:41;101098.19;;;18.47;46.48
30421;BME280;17218;54.070;10.012;2023-04-28T12:19:10;101088.19;;;18.57;47.37
30421;BME280;17218;54.070;10.012;2023-04-28T12:21:37;101086.22;;;18.38;47.96
30421;BME280;17218;54.070;10.012;2023-04-28T12:24:17;101083.81;;;18.57;48.22
30421;BME280;17218;54.070;10.012;2023-04-28T12:26:44;101072.25;;;18.63;48.61
30421;BME280;17218;54.070;10.012;2023-04-28T12:29:34;101077.56;;;19.10;45.72
30421;BME280;17218;54.070;10.012;2023-04-28T12:32:02;101079.94;;;19.17;45.31
30421;BME280;17218;54.070;10.012;2023-04-28T12:34:29;101064.59;;;18.57;47.41
30421;BME280;17218;54.070;10.012;2023-04-28T12:36:57;101070.91;;;19.01;46.96
30421;BME280;17218;54.070;10.012;2023-04-28T12:39:25;101055.66;;;18.87;46.93
30421;BME280;17218;54.070;10.012;2023-04-28T12:41:52;101061.56;;;18.92;46.67
30421;BME280;17218;54.070;10.012;2023-04-28T12:44:19;101047.84;;;18.10;47.82
30421;BME280;17218;54.070;10.012;2023-04-28T12:46:45;101052.75;;;18.21;50.62
30421;BME280;17218;54.070;10.012;2023-04-28T12:49:12;101055.34;;;16.12;53.47